createdAt,value
2023-04-27T00:00:45.641Z,6.68
2023-04-27T00:03:11.101Z,6.64
2023-04-27T00:05:37.068Z,6.71
2023-04-27T00:08:00.650Z,6.61
2023-04-27T00:10:24.294Z,6.31
2023-04-27T00:12:47.835Z,6.56
2023-04-27T00:15:12.664Z,6.63
2023-04-27T00:17:36.231Z,6.50
2023-04-27T00:20:01.693Z,6.66
2023-04-27T00:22:25.230Z,6.60
2023-04-27T00:24:48.823Z,6.54
2023-04-27T00:27:13.591Z,6.75
2023-04-27T00:29:37.355Z,6.66
2023-04-27T00:32:00.937Z,6.79
2023-04-27T00:34:24.643Z,6.69
2023-04-27T00:36:49.558Z,6.63
2023-04-27T00:39:13.378Z,6.61
2023-04-27T00:41:39.411Z,6.66
2023-04-27T00:44:03.410Z,6.69
2023-04-27T00:46:27.993Z,6.69
2023-04-27T00:48:51.807Z,6.72
2023-04-27T00:51:15.446Z,6.49
2023-04-27T00:53:40.765Z,6.56
2023-04-27T00:56:06.412Z,6.43
2023-04-27T00:58:29.980Z,6.40
2023-04-27T01:00:55.383Z,6.47
2023-04-27T01:03:19.592Z,6.57
2023-04-27T01:05:43.656Z,6.59
2023-04-27T01:08:07.636Z,6.48
2023-04-27T01:10:32.774Z,6.59
2023-04-27T01:12:56.450Z,6.58
2023-04-27T01:15:20.039Z,6.55
2023-04-27T01:17:43.749Z,6.59
2023-04-27T01:20:10.831Z,6.45
2023-04-27T01:22:34.430Z,6.56
2023-04-27T01:24:59.361Z,6.61
2023-04-27T01:27:22.971Z,6.44
2023-04-27T01:29:46.638Z,6.35
2023-04-27T01:32:10.206Z,6.37
2023-04-27T01:34:33.890Z,6.42
2023-04-27T01:36:57.549Z,6.39
2023-04-27T01:39:21.538Z,6.46
2023-04-27T01:41:46.499Z,6.38
2023-04-27T01:44:10.065Z,6.50
2023-04-27T01:46:33.711Z,6.39
2023-04-27T01:48:57.279Z,6.31
2023-04-27T01:51:21.445Z,6.48
2023-04-27T01:53:45.008Z,6.30
2023-04-27T01:56:08.672Z,6.38
2023-04-27T01:58:33.654Z,6.41
2023-04-27T02:00:57.288Z,6.41
2023-04-27T02:03:21.000Z,6.42
2023-04-27T02:05:48.031Z,6.40
2023-04-27T02:08:11.592Z,6.42
2023-04-27T02:10:37.024Z,6.46
2023-04-27T02:13:00.638Z,6.44
2023-04-27T02:15:25.743Z,6.38
2023-04-27T02:17:49.368Z,6.26
2023-04-27T02:20:14.709Z,6.36
2023-04-27T02:22:38.660Z,6.32
2023-04-27T02:25:02.254Z,6.36
2023-04-27T02:27:26.072Z,6.11
2023-04-27T02:29:50.080Z,6.26
2023-04-27T02:32:15.591Z,6.22
2023-04-27T02:34:39.206Z,6.18
2023-04-27T02:37:02.757Z,6.21
2023-04-27T02:39:26.352Z,6.13
2023-04-27T02:41:49.920Z,6.13
2023-04-27T02:44:13.555Z,6.16
2023-04-27T02:46:37.120Z,6.05
2023-04-27T02:49:02.148Z,5.96
2023-04-27T02:51:26.175Z,6.01
2023-04-27T02:53:49.792Z,6.09
2023-04-27T02:56:13.343Z,6.11
2023-04-27T02:58:37.243Z,6.09
2023-04-27T03:01:01.462Z,6.18
2023-04-27T03:03:25.920Z,5.89
2023-04-27T03:05:51.113Z,5.90
2023-04-27T03:08:14.953Z,5.95
2023-04-27T03:10:38.514Z,5.92
2023-04-27T03:13:02.107Z,5.98
2023-04-27T03:15:25.707Z,5.96
2023-04-27T03:17:49.442Z,5.87
2023-04-27T03:20:14.115Z,6.02
2023-04-27T03:22:39.103Z,5.81
2023-04-27T03:25:02.932Z,6.08
2023-04-27T03:27:26.694Z,6.07
2023-04-27T03:29:53.603Z,6.15
2023-04-27T03:32:17.294Z,6.06
2023-04-27T03:34:41.400Z,5.97
2023-04-27T03:37:04.977Z,5.93
2023-04-27T03:39:29.915Z,5.97
2023-04-27T03:41:53.520Z,5.89
2023-04-27T03:44:17.100Z,5.85
2023-04-27T03:46:40.755Z,5.95
2023-04-27T03:49:04.342Z,5.93
2023-04-27T03:51:28.317Z,5.78
2023-04-27T03:53:51.909Z,5.87
2023-04-27T03:56:17.567Z,5.80
2023-04-27T03:58:41.607Z,5.89
2023-04-27T04:01:18.894Z,5.78
2023-04-27T04:03:43.264Z,5.80
2023-04-27T04:06:08.556Z,5.91
2023-04-27T04:08:33.141Z,5.90
2023-04-27T04:10:58.244Z,5.89
2023-04-27T04:13:23.277Z,5.96
2023-04-27T04:15:47.433Z,5.85
2023-04-27T04:18:11.144Z,5.80
2023-04-27T04:20:36.880Z,5.67
2023-04-27T04:23:00.522Z,5.85
2023-04-27T04:25:26.184Z,5.91
2023-04-27T04:27:49.829Z,5.88
2023-04-27T04:30:15.994Z,5.94
2023-04-27T04:32:40.395Z,6.00
2023-04-27T04:35:06.023Z,6.05
2023-04-27T04:37:29.659Z,5.89
2023-04-27T04:39:53.864Z,6.03
2023-04-27T04:42:17.544Z,6.18
2023-04-27T04:44:41.235Z,6.15
2023-04-27T04:47:06.445Z,5.97
2023-04-27T04:49:30.118Z,6.01
2023-04-27T04:51:53.737Z,6.13
2023-04-27T04:54:17.270Z,6.08
2023-04-27T04:56:41.004Z,6.22
2023-04-27T04:59:05.019Z,6.21
2023-04-27T05:01:29.338Z,6.26
2023-04-27T05:03:54.446Z,6.20
2023-04-27T05:06:18.100Z,6.14
2023-04-27T05:08:41.660Z,6.37
2023-04-27T05:11:05.681Z,6.29
2023-04-27T05:13:29.693Z,6.30
2023-04-27T05:15:53.382Z,6.40
2023-04-27T05:18:16.924Z,6.27
2023-04-27T05:20:41.941Z,6.36
2023-04-27T05:23:05.513Z,6.47
2023-04-27T05:25:31.649Z,6.68
2023-04-27T05:27:55.237Z,6.69
2023-04-27T05:30:18.836Z,6.80
2023-04-27T05:32:42.424Z,6.78
2023-04-27T05:35:06.772Z,6.79
2023-04-27T05:37:31.710Z,6.84
2023-04-27T05:39:55.258Z,6.95
2023-04-27T05:42:18.823Z,7.09
2023-04-27T05:44:43.195Z,6.55
2023-04-27T05:47:06.973Z,7.06
2023-04-27T05:49:30.666Z,7.26
2023-04-27T05:51:54.263Z,7.21
2023-04-27T05:54:19.179Z,7.67
2023-04-27T05:56:42.736Z,7.74
2023-04-27T05:59:06.378Z,8.27
2023-04-27T06:01:29.990Z,8.44
2023-04-27T06:03:53.656Z,8.35
2023-04-27T06:06:17.216Z,8.63
2023-04-27T06:08:40.857Z,9.21
2023-04-27T06:11:06.493Z,9.72
2023-04-27T06:13:30.114Z,10.09
2023-04-27T06:15:53.691Z,10.72
2023-04-27T06:18:17.436Z,10.33
2023-04-27T06:20:42.016Z,9.77
2023-04-27T06:23:05.667Z,10.06
2023-04-27T06:25:29.484Z,11.71
2023-04-27T06:27:54.517Z,12.49
2023-04-27T06:30:18.403Z,12.25
2023-04-27T06:32:42.127Z,13.00
2023-04-27T06:35:06.348Z,12.42
2023-04-27T06:37:30.156Z,12.48
2023-04-27T06:39:53.724Z,13.05
2023-04-27T06:42:17.248Z,13.19
2023-04-27T06:44:42.248Z,13.70
2023-04-27T06:47:06.545Z,13.79
2023-04-27T06:49:30.106Z,13.41
2023-04-27T06:51:53.702Z,13.75
2023-04-27T06:54:17.284Z,14.21
2023-04-27T06:56:40.985Z,14.48
2023-04-27T06:59:04.507Z,13.76
2023-04-27T07:01:29.837Z,13.67
2023-04-27T07:03:53.561Z,14.39
2023-04-27T07:06:18.447Z,14.72
2023-04-27T07:08:43.143Z,14.24
2023-04-27T07:11:06.811Z,13.78
2023-04-27T07:13:31.822Z,13.36
2023-04-27T07:15:58.853Z,12.05
2023-04-27T07:18:23.898Z,12.66
2023-04-27T07:20:47.461Z,12.64
2023-04-27T07:23:11.187Z,11.85
2023-04-27T07:25:35.361Z,11.73
2023-04-27T07:27:59.755Z,12.29
2023-04-27T07:30:24.369Z,12.76
2023-04-27T07:32:48.342Z,13.06
2023-04-27T07:35:13.568Z,13.13
2023-04-27T07:37:37.433Z,11.58
2023-04-27T07:40:02.369Z,12.22
2023-04-27T07:42:26.109Z,12.55
2023-04-27T07:44:50.544Z,12.91
2023-04-27T07:47:14.414Z,12.43
2023-04-27T07:49:40.322Z,12.53
2023-04-27T07:52:05.729Z,12.77
2023-04-27T07:54:29.714Z,13.58
2023-04-27T07:56:53.738Z,12.86
2023-04-27T07:59:17.400Z,12.27
2023-04-27T08:01:41.010Z,12.94
2023-04-27T08:04:04.964Z,12.70
2023-04-27T08:06:30.037Z,13.34
2023-04-27T08:08:58.219Z,13.18
2023-04-27T08:11:22.561Z,13.26
2023-04-27T08:13:46.181Z,12.74
2023-04-27T08:16:09.846Z,13.12
2023-04-27T08:18:33.537Z,13.57
2023-04-27T08:20:57.210Z,13.26
2023-04-27T08:23:20.808Z,12.76
2023-04-27T08:25:45.701Z,12.36
2023-04-27T08:28:09.328Z,12.16
2023-04-27T08:30:33.064Z,11.64
2023-04-27T08:32:56.640Z,11.46
2023-04-27T08:35:20.439Z,11.67
2023-04-27T08:37:44.734Z,12.03
2023-04-27T08:40:10.955Z,11.46
2023-04-27T08:42:36.302Z,12.15
2023-04-27T08:45:00.571Z,11.52
2023-04-27T08:47:38.730Z,12.50
2023-04-27T08:50:06.764Z,13.33
2023-04-27T08:52:30.754Z,12.79
2023-04-27T08:54:55.635Z,12.08
2023-04-27T08:57:19.157Z,11.99
2023-04-27T08:59:45.385Z,11.76
2023-04-27T09:02:19.758Z,11.81
2023-04-27T09:04:43.584Z,11.17
2023-04-27T09:07:15.204Z,11.40
2023-04-27T09:09:38.859Z,11.10
2023-04-27T09:12:02.745Z,11.55
2023-04-27T09:14:26.507Z,11.72
2023-04-27T09:16:59.327Z,11.56
2023-04-27T09:19:26.584Z,12.11
2023-04-27T09:21:51.673Z,11.83
2023-04-27T09:24:15.844Z,12.46
2023-04-27T09:26:41.774Z,12.37
2023-04-27T09:29:05.368Z,13.10
2023-04-27T09:31:33.656Z,13.26
2023-04-27T09:33:58.708Z,12.76
2023-04-27T09:36:22.445Z,12.15
2023-04-27T09:38:46.104Z,12.01
2023-04-27T09:41:10.400Z,11.98
2023-04-27T09:43:34.285Z,11.70
2023-04-27T09:45:58.442Z,11.93
2023-04-27T09:48:23.785Z,12.66
2023-04-27T09:50:50.380Z,11.84
2023-04-27T09:53:17.120Z,12.70
2023-04-27T09:55:44.244Z,12.29
2023-04-27T09:58:54.828Z,12.82
2023-04-27T10:01:28.490Z,12.98
2023-04-27T10:04:10.641Z,12.60
2023-04-27T10:07:01.347Z,12.70
2023-04-27T10:09:25.618Z,13.02
2023-04-27T10:11:49.155Z,13.03
2023-04-27T10:14:19.303Z,13.29
2023-04-27T10:16:47.407Z,12.67
2023-04-27T10:19:11.784Z,12.89
2023-04-27T10:21:35.557Z,12.46
2023-04-27T10:24:09.707Z,12.71
2023-04-27T10:26:33.601Z,13.16
2023-04-27T10:29:08.802Z,13.50
2023-04-27T10:31:33.381Z,13.75
2023-04-27T10:34:08.580Z,13.32
2023-04-27T10:36:37.050Z,12.48
2023-04-27T10:39:02.149Z,13.08
2023-04-27T10:41:35.917Z,13.45
2023-04-27T10:44:15.840Z,13.40
2023-04-27T10:46:52.332Z,13.29
2023-04-27T10:49:18.088Z,13.63
2023-04-27T10:51:42.445Z,13.61
2023-04-27T10:54:08.113Z,13.26
2023-04-27T10:56:33.867Z,13.09
2023-04-27T10:58:57.609Z,13.40
2023-04-27T11:01:27.778Z,13.50
2023-04-27T11:03:57.831Z,13.34
2023-04-27T11:06:21.450Z,12.96
2023-04-27T11:08:47.873Z,12.67
2023-04-27T11:11:16.923Z,13.39
2023-04-27T11:13:40.609Z,13.87
2023-04-27T11:16:06.982Z,13.93
2023-04-27T11:18:33.644Z,13.82
2023-04-27T11:21:08.969Z,13.59
2023-04-27T11:23:37.059Z,13.95
2023-04-27T11:26:10.851Z,13.63
2023-04-27T11:28:35.856Z,14.08
2023-04-27T11:30:59.779Z,14.18
2023-04-27T11:33:23.459Z,13.55
2023-04-27T11:35:46.988Z,14.01
2023-04-27T11:38:18.716Z,13.83
2023-04-27T11:40:42.793Z,13.99
2023-04-27T11:43:06.319Z,13.44
2023-04-27T11:45:31.539Z,13.61
2023-04-27T11:47:55.298Z,12.92
2023-04-27T11:50:19.158Z,12.82
2023-04-27T11:52:42.666Z,13.42
2023-04-27T11:55:09.139Z,13.04
2023-04-27T11:57:35.654Z,13.15
2023-04-27T12:00:02.375Z,13.04
2023-04-27T12:02:38.936Z,13.09
2023-04-27T12:05:02.944Z,12.90
2023-04-27T12:07:27.078Z,13.31
2023-04-27T12:09:50.962Z,13.16
2023-04-27T12:12:16.995Z,13.03
2023-04-27T12:14:40.567Z,13.57
2023-04-27T12:17:04.664Z,13.78
2023-04-27T12:19:30.503Z,13.83
2023-04-27T12:21:54.330Z,13.76
2023-04-27T12:24:18.024Z,13.84
2023-04-27T12:26:41.530Z,13.60
2023-04-27T12:29:05.108Z,13.82
2023-04-27T12:31:28.745Z,13.41
2023-04-27T12:33:52.409Z,13.58
2023-04-27T12:36:17.340Z,13.68
2023-04-27T12:38:40.991Z,14.02
2023-04-27T12:41:04.553Z,13.76
2023-04-27T12:43:28.178Z,13.44
2023-04-27T12:45:51.837Z,13.89
2023-04-27T12:48:17.556Z,14.13
2023-04-27T12:50:41.361Z,14.18
2023-04-27T12:53:06.558Z,14.56
2023-04-27T12:55:34.075Z,14.13
2023-04-27T12:57:58.551Z,14.73
2023-04-27T13:00:22.407Z,14.24
2023-04-27T13:02:46.491Z,14.51
2023-04-27T13:05:11.876Z,13.70
2023-04-27T13:07:36.602Z,14.38
2023-04-27T13:10:02.077Z,14.92
2023-04-27T13:12:28.113Z,14.53
2023-04-27T13:14:51.738Z,14.83
2023-04-27T13:17:15.485Z,14.67
2023-04-27T13:19:39.000Z,14.97
2023-04-27T13:22:03.947Z,15.26
2023-04-27T13:24:29.389Z,15.27
2023-04-27T13:26:54.361Z,15.03
2023-04-27T13:29:18.532Z,14.90
2023-04-27T13:31:42.193Z,15.05
2023-04-27T13:34:06.072Z,15.55
2023-04-27T13:36:29.851Z,15.15
2023-04-27T13:38:53.807Z,14.77
2023-04-27T13:41:17.869Z,15.05
2023-04-27T13:43:43.722Z,14.25
2023-04-27T13:46:07.656Z,14.56
2023-04-27T13:48:32.040Z,14.33
2023-04-27T13:50:56.214Z,14.06
2023-04-27T13:53:19.954Z,14.45
2023-04-27T13:55:43.534Z,14.03
2023-04-27T13:58:07.179Z,14.26
2023-04-27T14:00:33.587Z,14.46
2023-04-27T14:02:57.210Z,14.36
2023-04-27T14:05:21.132Z,14.53
2023-04-27T14:07:44.639Z,13.91
2023-04-27T14:10:09.752Z,14.03
2023-04-27T14:12:33.735Z,13.92
2023-04-27T14:14:58.402Z,14.35
2023-04-27T14:17:23.462Z,14.74
2023-04-27T14:19:47.052Z,14.66
2023-04-27T14:22:11.171Z,14.33
2023-04-27T14:24:34.759Z,14.81
2023-04-27T14:26:58.313Z,14.41
2023-04-27T14:29:21.977Z,15.11
2023-04-27T14:31:46.253Z,14.65
2023-04-27T14:34:11.747Z,14.86
2023-04-27T14:36:35.974Z,15.02
2023-04-27T14:38:59.614Z,15.09
2023-04-27T14:41:23.181Z,14.72
2023-04-27T14:43:47.126Z,14.31
2023-04-27T14:46:20.348Z,14.21
2023-04-27T14:48:44.804Z,14.35
2023-04-27T14:51:09.778Z,13.15
2023-04-27T14:53:33.494Z,13.89
2023-04-27T14:55:57.047Z,14.56
2023-04-27T14:58:20.691Z,14.47
2023-04-27T15:00:44.298Z,14.05
2023-04-27T15:03:08.093Z,13.80
2023-04-27T15:05:31.799Z,13.59
2023-04-27T15:07:57.089Z,13.40
2023-04-27T15:10:20.860Z,13.53
2023-04-27T15:12:44.411Z,14.04
2023-04-27T15:15:10.443Z,13.83
2023-04-27T15:17:34.395Z,13.99
2023-04-27T15:19:58.367Z,13.98
2023-04-27T15:22:23.582Z,13.54
2023-04-27T15:24:48.546Z,12.80
2023-04-27T15:27:12.135Z,13.33
2023-04-27T15:29:35.647Z,13.66
2023-04-27T15:31:59.235Z,14.17
2023-04-27T15:34:22.926Z,13.84
2023-04-27T15:36:46.488Z,13.36
2023-04-27T15:39:10.384Z,13.03
2023-04-27T15:41:35.565Z,13.07
2023-04-27T15:43:59.123Z,13.75
2023-04-27T15:46:22.813Z,13.54
2023-04-27T15:48:46.534Z,13.41
2023-04-27T15:51:10.605Z,13.11
2023-04-27T15:53:34.434Z,13.55
2023-04-27T15:55:57.995Z,13.23
2023-04-27T15:58:22.947Z,13.50
2023-04-27T16:00:46.683Z,13.23
2023-04-27T16:03:11.296Z,13.43
2023-04-27T16:05:35.206Z,13.28
2023-04-27T16:07:58.807Z,13.27
2023-04-27T16:10:22.413Z,13.22
2023-04-27T16:12:45.942Z,12.86
2023-04-27T16:15:12.103Z,13.36
2023-04-27T16:17:37.034Z,13.08
2023-04-27T16:20:00.744Z,13.37
2023-04-27T16:22:24.417Z,12.66
2023-04-27T16:24:48.017Z,12.22
2023-04-27T16:27:11.664Z,12.56
2023-04-27T16:29:35.353Z,12.45
2023-04-27T16:32:00.724Z,12.55
2023-04-27T16:34:24.407Z,12.58
2023-04-27T16:36:49.782Z,12.16
2023-04-27T16:39:14.225Z,11.98
2023-04-27T16:41:37.892Z,12.15
2023-04-27T16:44:01.511Z,12.15
2023-04-27T16:46:25.156Z,12.22
2023-04-27T16:48:50.151Z,12.18
2023-04-27T16:51:14.033Z,12.25
2023-04-27T16:53:38.198Z,12.32
2023-04-27T16:56:02.230Z,12.21
2023-04-27T16:58:25.873Z,11.99
2023-04-27T17:00:49.382Z,12.22
2023-04-27T17:03:13.110Z,12.31
2023-04-27T17:05:38.128Z,12.31
2023-04-27T17:08:04.268Z,12.12
2023-04-27T17:10:30.181Z,12.23
2023-04-27T17:12:53.833Z,12.36
2023-04-27T17:15:18.235Z,12.31
2023-04-27T17:17:42.135Z,12.24
2023-04-27T17:20:07.808Z,11.98
2023-04-27T17:22:33.026Z,11.77
2023-04-27T17:24:56.874Z,11.99
2023-04-27T17:27:20.752Z,12.04
2023-04-27T17:29:44.306Z,11.99
2023-04-27T17:32:09.259Z,11.74
2023-04-27T17:34:33.117Z,11.91
2023-04-27T17:36:56.738Z,11.87
2023-04-27T17:39:22.698Z,11.80
2023-04-27T17:41:46.863Z,11.70
2023-04-27T17:44:12.831Z,11.63
2023-04-27T17:46:38.637Z,11.57
2023-04-27T17:49:02.337Z,11.52
2023-04-27T17:51:26.316Z,11.44
2023-04-27T17:53:49.856Z,11.33
2023-04-27T17:56:14.912Z,11.29
2023-04-27T17:58:38.696Z,11.14
2023-04-27T18:01:02.349Z,11.08
2023-04-27T18:03:27.096Z,10.96
2023-04-27T18:05:50.881Z,10.93
2023-04-27T18:08:14.446Z,10.81
2023-04-27T18:10:38.033Z,10.70
2023-04-27T18:13:03.631Z,10.60
2023-04-27T18:15:27.322Z,10.53
2023-04-27T18:17:51.072Z,10.43
2023-04-27T18:20:15.665Z,10.30
2023-04-27T18:22:40.165Z,10.18
2023-04-27T18:25:04.071Z,10.11
2023-04-27T18:27:27.854Z,10.02
2023-04-27T18:29:52.806Z,9.92
2023-04-27T18:32:16.326Z,9.74
2023-04-27T18:34:39.917Z,9.68
2023-04-27T18:37:03.498Z,9.61
2023-04-27T18:39:27.123Z,9.47
2023-04-27T18:41:50.763Z,9.36
2023-04-27T18:44:15.717Z,9.28
2023-04-27T18:46:40.878Z,9.16
2023-04-27T18:49:04.555Z,9.07
2023-04-27T18:51:28.960Z,8.98
2023-04-27T18:53:52.552Z,8.90
2023-04-27T18:56:16.085Z,8.80
2023-04-27T18:58:39.670Z,8.65
2023-04-27T19:01:03.315Z,8.58
2023-04-27T19:03:28.548Z,8.51
2023-04-27T19:05:52.841Z,8.43
2023-04-27T19:08:16.739Z,8.31
2023-04-27T19:10:41.480Z,8.27
2023-04-27T19:13:05.215Z,8.18
2023-04-27T19:15:28.884Z,8.08
2023-04-27T19:18:02.871Z,8.01
2023-04-27T19:20:34.824Z,7.88
2023-04-27T19:22:58.421Z,7.81
2023-04-27T19:25:23.085Z,7.72
2023-04-27T19:27:46.728Z,7.67
2023-04-27T19:30:11.559Z,7.58
2023-04-27T19:32:35.513Z,7.52
2023-04-27T19:35:00.067Z,7.40
2023-04-27T19:37:26.111Z,7.30
2023-04-27T19:39:49.812Z,7.30
2023-04-27T19:42:14.084Z,7.16
2023-04-27T19:44:37.768Z,7.10
2023-04-27T19:47:01.316Z,7.10
2023-04-27T19:49:25.519Z,7.03
2023-04-27T19:51:49.072Z,6.93
2023-04-27T19:54:14.298Z,6.92
2023-04-27T19:56:38.072Z,6.86
2023-04-27T19:59:01.647Z,6.77
2023-04-27T20:01:25.220Z,6.72
2023-04-27T20:03:48.956Z,6.60
2023-04-27T20:06:12.752Z,6.55
2023-04-27T20:08:36.906Z,6.49
2023-04-27T20:11:01.837Z,6.42
2023-04-27T20:13:25.634Z,6.41
2023-04-27T20:15:49.282Z,6.30
2023-04-27T20:18:13.064Z,6.32
2023-04-27T20:20:37.406Z,6.21
2023-04-27T20:23:01.239Z,6.06
2023-04-27T20:25:25.735Z,6.10
2023-04-27T20:27:51.355Z,6.09
2023-04-27T20:30:15.130Z,6.04
2023-04-27T20:32:39.633Z,5.97
2023-04-27T20:35:04.826Z,5.97
2023-04-27T20:37:28.532Z,5.86
2023-04-27T20:39:53.574Z,5.85
2023-04-27T20:42:17.265Z,5.85
2023-04-27T20:44:42.453Z,5.79
2023-04-27T20:47:06.097Z,5.73
2023-04-27T20:49:34.877Z,5.69
2023-04-27T20:51:58.953Z,5.60
2023-04-27T20:54:22.516Z,5.61
2023-04-27T20:56:46.878Z,5.57
2023-04-27T20:59:10.423Z,5.47
2023-04-27T21:01:35.545Z,5.49
2023-04-27T21:03:59.256Z,5.48
2023-04-27T21:06:22.935Z,5.43
2023-04-27T21:08:46.556Z,5.42
2023-04-27T21:11:10.340Z,5.33
2023-04-27T21:13:33.906Z,5.32
2023-04-27T21:15:57.535Z,5.25
2023-04-27T21:18:29.918Z,5.20
2023-04-27T21:20:54.331Z,5.16
2023-04-27T21:23:19.246Z,5.12
2023-04-27T21:25:45.271Z,5.08
2023-04-27T21:28:08.767Z,5.05
2023-04-27T21:30:32.365Z,4.99
2023-04-27T21:32:56.267Z,5.02
2023-04-27T21:35:21.415Z,4.97
2023-04-27T21:37:44.925Z,4.95
2023-04-27T21:40:10.075Z,4.94
2023-04-27T21:42:33.631Z,4.92
2023-04-27T21:44:58.246Z,4.85
2023-04-27T21:47:21.822Z,4.75
2023-04-27T21:49:45.422Z,4.66
2023-04-27T21:52:10.531Z,4.63
2023-04-27T21:54:34.085Z,4.70
2023-04-27T21:56:57.624Z,4.68
2023-04-27T21:59:21.678Z,4.58
2023-04-27T22:01:45.240Z,4.59
2023-04-27T22:04:09.845Z,4.58
2023-04-27T22:06:34.021Z,4.56
2023-04-27T22:08:59.110Z,4.54
2023-04-27T22:11:22.676Z,4.49
2023-04-27T22:13:46.548Z,4.46
2023-04-27T22:16:12.251Z,4.42
2023-04-27T22:18:37.315Z,4.42
2023-04-27T22:21:00.988Z,4.33
2023-04-27T22:23:24.733Z,4.33
2023-04-27T22:25:49.639Z,4.28
2023-04-27T22:28:13.315Z,4.18
2023-04-27T22:30:37.118Z,4.22
2023-04-27T22:33:00.821Z,4.24
2023-04-27T22:35:27.107Z,4.20
2023-04-27T22:37:51.665Z,4.12
2023-04-27T22:40:15.263Z,3.96
2023-04-27T22:42:40.398Z,4.01
2023-04-27T22:45:04.033Z,4.03
2023-04-27T22:47:28.167Z,4.06
2023-04-27T22:49:52.349Z,4.05
2023-04-27T22:52:16.628Z,3.79
2023-04-27T22:54:40.173Z,3.96
2023-04-27T22:57:04.497Z,3.95
2023-04-27T22:59:29.377Z,3.88
2023-04-27T23:01:53.372Z,3.92
2023-04-27T23:04:17.302Z,3.92
2023-04-27T23:06:42.078Z,3.74
2023-04-27T23:09:05.783Z,3.73
2023-04-27T23:11:29.396Z,3.82
2023-04-27T23:13:54.645Z,3.69
2023-04-27T23:16:19.924Z,3.73
2023-04-27T23:18:43.451Z,3.60
2023-04-27T23:21:07.132Z,3.65
2023-04-27T23:23:31.027Z,3.73
2023-04-27T23:25:54.593Z,3.67
2023-04-27T23:28:18.104Z,3.58
2023-04-27T23:30:41.814Z,3.58
2023-04-27T23:33:06.895Z,3.63
2023-04-27T23:35:31.707Z,3.58
2023-04-27T23:37:55.224Z,3.51
2023-04-27T23:40:18.991Z,3.46
2023-04-27T23:42:42.514Z,3.57
2023-04-27T23:45:07.395Z,3.56
2023-04-27T23:47:31.328Z,3.49
2023-04-27T23:49:56.412Z,3.38
2023-04-27T23:52:19.925Z,3.45
2023-04-27T23:54:43.555Z,3.36
2023-04-27T23:57:07.590Z,3.40
2023-04-27T23:59:35.469Z,3.28
